sensor_id;sensor_type;location;lat;lon;timestamp;pressure;altitude;pressure_sealevel;temperature;humidity
17254;BME280;32542;52.832;13.816;2023-04-07T00:01:38;101982.91;;;20.56;42.38
17254;BME280;32542;52.832;13.816;2023-04-07T00:04:41;101970.50;;;20.55;42.32
17254;BME280;32542;52.832;13.816;2023-04-07T00:07:44;101974.09;;;20.54;42.37
17254;BME280;32542;52.832;13.816;2023-04-07T00:10:57;101973.22;;;20.54;42.48
17254;BME280;32542;52.832;13.816;2023-04-07T00:14:02;101974.16;;;20.53;42.62
17254;BME280;32542;52.832;13.816;2023-04-07T00:17:05;101969.69;;;20.53;42.62
17254;BME280;32542;52.832;13.816;2023-04-07T00:20:08;101966.16;;;20.53;42.53
17254;BME280;32542;52.832;13.816;2023-04-07T00:23:11;101960.84;;;20.53;42.60
17254;BME280;32542;52.832;13.816;2023-04-07T00:26:14;101961.69;;;20.53;42.64
17254;BME280;32542;52.832;13.816;2023-04-07T00:29:19;101961.69;;;20.53;42.71
17254;BME280;32542;52.832;13.816;2023-04-07T00:32:22;101960.88;;;20.51;42.63
17254;BME280;32542;52.832;13.816;2023-04-07T00:35:25;101965.28;;;20.52;42.88
17254;BME280;32542;52.832;13.816;2023-04-07T00:38:28;101956.47;;;20.50;42.94
17254;BME280;32542;52.832;13.816;2023-04-07T00:41:33;101961.81;;;20.50;42.86
17254;BME280;32542;52.832;13.816;2023-04-07T00:44:37;101947.63;;;20.50;43.02
17254;BME280;32542;52.832;13.816;2023-04-07T00:47:40;101946.72;;;20.49;43.03
17254;BME280;32542;52.832;13.816;2023-04-07T00:50:44;101952.06;;;20.49;42.98
17254;BME280;32542;52.832;13.816;2023-04-07T00:53:47;101953.00;;;20.48;43.07
17254;BME280;32542;52.832;13.816;2023-04-07T00:56:51;101943.19;;;20.49;43.17
17254;BME280;32542;52.832;13.816;2023-04-07T00:59:57;101938.81;;;20.48;43.09
17254;BME280;32542;52.832;13.816;2023-04-07T01:03:04;101944.13;;;20.48;43.09
17254;BME280;32542;52.832;13.816;2023-04-07T01:06:12;101942.34;;;20.48;43.05
17254;BME280;32542;52.832;13.816;2023-04-07T01:09:22;101941.47;;;20.48;43.14
17254;BME280;32542;52.832;13.816;2023-04-07T01:12:33;101933.47;;;20.48;43.18
17254;BME280;32542;52.832;13.816;2023-04-07T01:15:39;101942.38;;;20.47;43.13
17254;BME280;32542;52.832;13.816;2023-04-07T01:18:47;101941.53;;;20.46;43.13
17254;BME280;32542;52.832;13.816;2023-04-07T01:21:55;101930.88;;;20.46;43.11
17254;BME280;32542;52.832;13.816;2023-04-07T01:32:22;101930.03;;;20.44;43.14
17254;BME280;32542;52.832;13.816;2023-04-07T01:35:30;101930.03;;;20.44;43.05
17254;BME280;32542;52.832;13.816;2023-04-07T01:38:34;101933.56;;;20.45;43.14
17254;BME280;32542;52.832;13.816;2023-04-07T01:41:38;101924.72;;;20.44;43.18
17254;BME280;32542;52.832;13.816;2023-04-07T01:44:42;101923.84;;;20.44;43.16
17254;BME280;32542;52.832;13.816;2023-04-07T01:47:48;101919.41;;;20.44;42.99
17254;BME280;32542;52.832;13.816;2023-04-07T01:50:52;101923.84;;;20.44;43.09
17254;BME280;32542;52.832;13.816;2023-04-07T01:53:56;101919.41;;;20.44;43.10
17254;BME280;32542;52.832;13.816;2023-04-07T01:57:00;101920.31;;;20.43;43.03
17254;BME280;32542;52.832;13.816;2023-04-07T02:00:04;101923.84;;;20.44;43.03
17254;BME280;32542;52.832;13.816;2023-04-07T02:03:19;101918.56;;;20.42;42.99
17254;BME280;32542;52.832;13.816;2023-04-07T02:06:34;101915.91;;;20.42;42.96
17254;BME280;32542;52.832;13.816;2023-04-07T02:09:41;101912.38;;;20.42;43.03
17254;BME280;32542;52.832;13.816;2023-04-07T02:12:45;101907.06;;;20.42;43.12
17254;BME280;32542;52.832;13.816;2023-04-07T02:15:53;101903.50;;;20.41;43.08
17254;BME280;32542;52.832;13.816;2023-04-07T02:18:59;101907.06;;;20.40;43.00
17254;BME280;32542;52.832;13.816;2023-04-07T02:22:04;101904.41;;;20.40;43.09
17254;BME280;32542;52.832;13.816;2023-04-07T02:25:23;101901.75;;;20.40;43.17
17254;BME280;32542;52.832;13.816;2023-04-07T02:28:27;101902.63;;;20.41;43.03
17254;BME280;32542;52.832;13.816;2023-04-07T02:31:30;101903.56;;;20.40;43.05
17254;BME280;32542;52.832;13.816;2023-04-07T02:34:35;101901.75;;;20.40;43.12
17254;BME280;32542;52.832;13.816;2023-04-07T02:37:40;101900.91;;;20.40;43.00
17254;BME280;32542;52.832;13.816;2023-04-07T02:40:43;101899.09;;;20.40;43.00
17254;BME280;32542;52.832;13.816;2023-04-07T02:43:46;101900.03;;;20.39;43.04
17254;BME280;32542;52.832;13.816;2023-04-07T02:46:50;101899.16;;;20.39;43.05
17254;BME280;32542;52.832;13.816;2023-04-07T02:49:54;101898.25;;;20.38;43.06
17254;BME280;32542;52.832;13.816;2023-04-07T02:52:57;101901.81;;;20.39;43.10
17254;BME280;32542;52.832;13.816;2023-04-07T02:56:00;101900.91;;;20.38;43.15
17254;BME280;32542;52.832;13.816;2023-04-07T02:59:02;101898.31;;;20.37;43.22
17254;BME280;32542;52.832;13.816;2023-04-07T03:02:11;101904.50;;;20.37;43.09
17254;BME280;32542;52.832;13.816;2023-04-07T03:05:15;101904.50;;;20.37;43.21
17254;BME280;32542;52.832;13.816;2023-04-07T03:08:18;101896.53;;;20.37;43.03
17254;BME280;32542;52.832;13.816;2023-04-07T03:11:22;101896.53;;;20.37;42.94
17254;BME280;32542;52.832;13.816;2023-04-07T03:14:26;101896.53;;;20.37;43.19
17254;BME280;32542;52.832;13.816;2023-04-07T03:17:29;101892.09;;;20.38;43.14
17254;BME280;32542;52.832;13.816;2023-04-07T03:20:34;101894.75;;;20.38;43.10
17254;BME280;32542;52.832;13.816;2023-04-07T03:23:43;101893.00;;;20.37;43.02
17254;BME280;32542;52.832;13.816;2023-04-07T03:26:46;101886.78;;;20.36;43.14
17254;BME280;32542;52.832;13.816;2023-04-07T03:30:09;101894.78;;;20.36;43.14
17254;BME280;32542;52.832;13.816;2023-04-07T03:33:12;101885.06;;;20.35;43.13
17254;BME280;32542;52.832;13.816;2023-04-07T03:36:17;101888.59;;;20.36;43.02
17254;BME280;32542;52.832;13.816;2023-04-07T03:39:21;101887.72;;;20.35;43.07
17254;BME280;32542;52.832;13.816;2023-04-07T03:42:28;101891.28;;;20.34;42.97
17254;BME280;32542;52.832;13.816;2023-04-07T03:45:36;101885.97;;;20.34;43.09
17254;BME280;32542;52.832;13.816;2023-04-07T03:48:40;101880.66;;;20.34;43.07
17254;BME280;32542;52.832;13.816;2023-04-07T03:51:45;101882.41;;;20.35;43.18
17254;BME280;32542;52.832;13.816;2023-04-07T03:54:51;101887.72;;;20.35;43.04
17254;BME280;32542;52.832;13.816;2023-04-07T03:57:59;101887.72;;;20.35;43.12
17254;BME280;32542;52.832;13.816;2023-04-07T04:01:05;101890.38;;;20.35;43.16
17254;BME280;32542;52.832;13.816;2023-04-07T04:04:09;101890.38;;;20.35;43.03
17254;BME280;32542;52.832;13.816;2023-04-07T04:07:14;101883.31;;;20.34;43.21
17254;BME280;32542;52.832;13.816;2023-04-07T04:10:25;101882.41;;;20.35;43.15
17254;BME280;32542;52.832;13.816;2023-04-07T04:13:28;101875.31;;;20.34;43.04
17254;BME280;32542;52.832;13.816;2023-04-07T04:16:36;101879.81;;;20.34;43.20
17254;BME280;32542;52.832;13.816;2023-04-07T04:19:47;101876.25;;;20.33;43.18
17254;BME280;32542;52.832;13.816;2023-04-07T04:23:01;101878.91;;;20.33;43.04
17254;BME280;32542;52.832;13.816;2023-04-07T04:26:04;101873.59;;;20.33;43.13
17254;BME280;32542;52.832;13.816;2023-04-07T04:29:08;101870.13;;;20.31;43.16
17254;BME280;32542;52.832;13.816;2023-04-07T04:32:13;101872.78;;;20.31;43.02
17254;BME280;32542;52.832;13.816;2023-04-07T04:35:18;101870.13;;;20.31;43.16
17254;BME280;32542;52.832;13.816;2023-04-07T04:38:39;101877.16;;;20.32;43.15
17254;BME280;32542;52.832;13.816;2023-04-07T04:41:53;101886.94;;;20.32;43.04
17254;BME280;32542;52.832;13.816;2023-04-07T04:45:04;101875.44;;;20.31;43.03
17254;BME280;32542;52.832;13.816;2023-04-07T04:48:08;101886.94;;;20.32;43.18
17254;BME280;32542;52.832;13.816;2023-04-07T04:51:12;101884.31;;;20.30;43.19
17254;BME280;32542;52.832;13.816;2023-04-07T04:54:17;101876.34;;;20.30;43.17
17254;BME280;32542;52.832;13.816;2023-04-07T04:57:21;101883.44;;;20.30;43.18
17254;BME280;32542;52.832;13.816;2023-04-07T05:00:24;101885.25;;;20.29;43.22
17254;BME280;32542;52.832;13.816;2023-04-07T05:03:32;101888.75;;;20.30;43.10
17254;BME280;32542;52.832;13.816;2023-04-07T05:06:39;101885.25;;;20.29;43.06
17254;BME280;32542;52.832;13.816;2023-04-07T05:09:46;101887.91;;;20.29;43.23
17254;BME280;32542;52.832;13.816;2023-04-07T05:12:52;101893.22;;;20.29;43.04
17254;BME280;32542;52.832;13.816;2023-04-07T05:15:55;101896.72;;;20.30;43.04
17254;BME280;32542;52.832;13.816;2023-04-07T05:18:58;101891.47;;;20.28;43.10
17254;BME280;32542;52.832;13.816;2023-04-07T05:22:01;101893.22;;;20.29;43.11
17254;BME280;32542;52.832;13.816;2023-04-07T05:25:10;101895.88;;;20.29;43.11
17254;BME280;32542;52.832;13.816;2023-04-07T05:28:15;101885.25;;;20.29;43.14
17254;BME280;32542;52.832;13.816;2023-04-07T05:31:19;101895.00;;;20.29;43.16
17254;BME280;32542;52.832;13.816;2023-04-07T05:34:26;101889.69;;;20.29;43.13
17254;BME280;32542;52.832;13.816;2023-04-07T05:37:30;101895.91;;;20.28;43.14
17254;BME280;32542;52.832;13.816;2023-04-07T05:40:39;101890.59;;;20.28;43.13
17254;BME280;32542;52.832;13.816;2023-04-07T05:43:45;101895.91;;;20.28;43.22
17254;BME280;32542;52.832;13.816;2023-04-07T05:46:50;101898.53;;;20.29;43.06
17254;BME280;32542;52.832;13.816;2023-04-07T05:49:55;101900.38;;;20.27;43.16
17254;BME280;32542;52.832;13.816;2023-04-07T05:52:57;101895.06;;;20.27;43.21
17254;BME280;32542;52.832;13.816;2023-04-07T05:56:02;101894.19;;;20.27;43.14
17254;BME280;32542;52.832;13.816;2023-04-07T05:59:16;101891.47;;;20.28;43.14
17254;BME280;32542;52.832;13.816;2023-04-07T06:02:19;101892.41;;;20.27;43.13
17254;BME280;32542;52.832;13.816;2023-04-07T06:05:24;101889.75;;;20.27;42.96
17254;BME280;32542;52.832;13.816;2023-04-07T06:08:30;101901.22;;;20.29;43.08
17254;BME280;32542;52.832;13.816;2023-04-07T06:11:34;101901.22;;;20.29;43.11
17254;BME280;32542;52.832;13.816;2023-04-07T06:14:37;101902.09;;;20.28;43.10
17254;BME280;32542;52.832;13.816;2023-04-07T06:17:40;101897.72;;;20.27;43.03
17254;BME280;32542;52.832;13.816;2023-04-07T06:20:44;101901.22;;;20.28;43.07
17254;BME280;32542;52.832;13.816;2023-04-07T06:23:47;101900.38;;;20.27;43.12
17254;BME280;32542;52.832;13.816;2023-04-07T06:26:52;101908.34;;;20.27;43.19
17254;BME280;32542;52.832;13.816;2023-04-07T06:29:57;101910.13;;;20.27;43.10
17254;BME280;32542;52.832;13.816;2023-04-07T06:32:59;101911.00;;;20.27;43.23
17254;BME280;32542;52.832;13.816;2023-04-07T06:36:03;101909.25;;;20.26;43.06
17254;BME280;32542;52.832;13.816;2023-04-07T06:39:05;101907.47;;;20.27;43.15
17254;BME280;32542;52.832;13.816;2023-04-07T06:42:10;101911.00;;;20.27;43.16
17254;BME280;32542;52.832;13.816;2023-04-07T06:45:23;101916.34;;;20.27;43.11
17254;BME280;32542;52.832;13.816;2023-04-07T06:48:25;101917.22;;;20.26;43.08
17254;BME280;32542;52.832;13.816;2023-04-07T06:51:28;101914.53;;;20.28;43.13
17254;BME280;32542;52.832;13.816;2023-04-07T06:54:32;101911.00;;;20.27;43.13
17254;BME280;32542;52.832;13.816;2023-04-07T06:57:36;101905.69;;;20.27;43.21
17254;BME280;32542;52.832;13.816;2023-04-07T07:00:39;101908.34;;;20.27;43.14
17254;BME280;32542;52.832;13.816;2023-04-07T07:03:42;101907.47;;;20.27;43.15
17254;BME280;32542;52.832;13.816;2023-04-07T07:06:44;101908.34;;;20.27;43.15
17254;BME280;32542;52.832;13.816;2023-04-07T07:09:47;101912.78;;;20.27;43.43
17254;BME280;32542;52.832;13.816;2023-04-07T07:12:51;101914.53;;;20.28;43.41
17254;BME280;32542;52.832;13.816;2023-04-07T07:15:54;101924.22;;;20.30;43.41
17254;BME280;32542;52.832;13.816;2023-04-07T07:18:57;101917.13;;;20.31;43.13
17254;BME280;32542;52.832;13.816;2023-04-07T07:22:00;101910.03;;;20.30;43.26
17254;BME280;32542;52.832;13.816;2023-04-07T07:25:05;101917.13;;;20.31;43.02
17254;BME280;32542;52.832;13.816;2023-04-07T07:28:09;101911.84;;;20.29;42.05
17254;BME280;32542;52.832;13.816;2023-04-07T07:31:12;101909.25;;;20.26;40.85
17254;BME280;32542;52.832;13.816;2023-04-07T07:34:16;101918.16;;;20.25;39.86
17254;BME280;32542;52.832;13.816;2023-04-07T07:37:19;101917.34;;;20.23;39.59
17254;BME280;32542;52.832;13.816;2023-04-07T07:40:21;101921.78;;;20.21;38.96
17254;BME280;32542;52.832;13.816;2023-04-07T07:43:26;101926.25;;;20.19;38.48
17254;BME280;32542;52.832;13.816;2023-04-07T07:46:29;101930.75;;;20.17;38.52
17254;BME280;32542;52.832;13.816;2023-04-07T07:49:31;101931.63;;;20.17;38.92
17254;BME280;32542;52.832;13.816;2023-04-07T07:52:34;101941.38;;;20.17;38.72
17254;BME280;32542;52.832;13.816;2023-04-07T07:55:37;101939.66;;;20.16;38.49
17254;BME280;32542;52.832;13.816;2023-04-07T07:58:41;101944.97;;;20.16;38.91
17254;BME280;32542;52.832;13.816;2023-04-07T08:01:44;101944.91;;;20.17;38.99
17254;BME280;32542;52.832;13.816;2023-04-07T08:04:47;101946.66;;;20.20;39.12
17254;BME280;32542;52.832;13.816;2023-04-07T08:07:51;101950.16;;;20.22;39.17
17254;BME280;32542;52.832;13.816;2023-04-07T08:10:55;101945.66;;;20.24;39.57
17254;BME280;32542;52.832;13.816;2023-04-07T08:14:00;101946.50;;;20.26;39.77
17254;BME280;32542;52.832;13.816;2023-04-07T08:17:02;101951.75;;;20.29;40.03
17254;BME280;32542;52.832;13.816;2023-04-07T08:20:06;101949.91;;;20.31;40.74
17254;BME280;32542;52.832;13.816;2023-04-07T08:23:10;101947.19;;;20.33;40.69
17254;BME280;32542;52.832;13.816;2023-04-07T08:26:13;101961.34;;;20.35;40.66
17254;BME280;32542;52.832;13.816;2023-04-07T08:29:18;101959.50;;;20.37;40.97
17254;BME280;32542;52.832;13.816;2023-04-07T08:32:20;101960.38;;;20.37;41.02
17254;BME280;32542;52.832;13.816;2023-04-07T08:35:23;101962.13;;;20.38;41.20
17254;BME280;32542;52.832;13.816;2023-04-07T08:38:26;101958.47;;;20.42;41.92
17254;BME280;32542;52.832;13.816;2023-04-07T08:41:32;101957.50;;;20.45;42.12
17254;BME280;32542;52.832;13.816;2023-04-07T08:44:39;101953.94;;;20.46;42.27
17254;BME280;32542;52.832;13.816;2023-04-07T08:47:42;101960.16;;;20.46;42.25
17254;BME280;32542;52.832;13.816;2023-04-07T08:50:48;101961.00;;;20.47;42.36
17254;BME280;32542;52.832;13.816;2023-04-07T08:53:57;101954.81;;;20.46;42.56
17254;BME280;32542;52.832;13.816;2023-04-07T08:57:02;101960.16;;;20.46;42.75
17254;BME280;32542;52.832;13.816;2023-04-07T09:00:08;101960.09;;;20.48;42.74
17254;BME280;32542;52.832;13.816;2023-04-07T09:03:12;101963.63;;;20.48;42.86
17254;BME280;32542;52.832;13.816;2023-04-07T09:06:15;101963.63;;;20.48;43.14
17254;BME280;32542;52.832;13.816;2023-04-07T09:09:18;101960.91;;;20.50;44.41
17254;BME280;32542;52.832;13.816;2023-04-07T09:12:21;101964.47;;;20.50;44.24
17254;BME280;32542;52.832;13.816;2023-04-07T09:15:29;101968.03;;;20.49;43.95
17254;BME280;32542;52.832;13.816;2023-04-07T09:18:32;101960.91;;;20.50;43.95
17254;BME280;32542;52.832;13.816;2023-04-07T09:21:48;101967.97;;;20.51;43.88
17254;BME280;32542;52.832;13.816;2023-04-07T09:24:51;101968.84;;;20.51;44.01
17254;BME280;32542;52.832;13.816;2023-04-07T09:27:58;101966.19;;;20.51;44.26
17254;BME280;32542;52.832;13.816;2023-04-07T09:31:03;101972.41;;;20.52;44.47
17254;BME280;32542;52.832;13.816;2023-04-07T09:34:23;101968.78;;;20.54;44.95
17254;BME280;32542;52.832;13.816;2023-04-07T09:37:26;101972.31;;;20.55;45.58
17254;BME280;32542;52.832;13.816;2023-04-07T09:40:29;101969.59;;;20.56;46.14
17254;BME280;32542;52.832;13.816;2023-04-07T09:43:32;101962.50;;;20.57;46.31
17254;BME280;32542;52.832;13.816;2023-04-07T09:46:48;101972.16;;;20.59;47.75
17254;BME280;32542;52.832;13.816;2023-04-07T09:49:53;101972.09;;;20.62;47.67
17254;BME280;32542;52.832;13.816;2023-04-07T09:52:57;101969.31;;;20.67;48.29
17254;BME280;32542;52.832;13.816;2023-04-07T09:56:00;101971.91;;;20.68;48.03
17254;BME280;32542;52.832;13.816;2023-04-07T09:59:03;101963.03;;;20.69;47.88
17254;BME280;32542;52.832;13.816;2023-04-07T10:02:07;101970.97;;;20.71;48.01
17254;BME280;32542;52.832;13.816;2023-04-07T10:05:11;101973.56;;;20.72;48.45
17254;BME280;32542;52.832;13.816;2023-04-07T10:08:14;101977.13;;;20.73;48.71
17254;BME280;32542;52.832;13.816;2023-04-07T10:11:17;101975.22;;;20.76;49.02
17254;BME280;32542;52.832;13.816;2023-04-07T10:14:22;101970.84;;;20.75;49.40
17254;BME280;32542;52.832;13.816;2023-04-07T10:17:29;101970.78;;;20.77;49.32
17254;BME280;32542;52.832;13.816;2023-04-07T10:20:33;101967.22;;;20.78;49.27
17254;BME280;32542;52.832;13.816;2023-04-07T10:23:52;101968.94;;;20.79;48.69
17254;BME280;32542;52.832;13.816;2023-04-07T10:27:00;101965.38;;;20.80;49.01
17254;BME280;32542;52.832;13.816;2023-04-07T10:30:11;101965.38;;;20.80;48.94
17254;BME280;32542;52.832;13.816;2023-04-07T10:33:16;101967.13;;;20.81;48.73
17254;BME280;32542;52.832;13.816;2023-04-07T10:36:20;101974.22;;;20.80;48.54
17254;BME280;32542;52.832;13.816;2023-04-07T10:39:23;101967.13;;;20.81;48.79
17254;BME280;32542;52.832;13.816;2023-04-07T10:42:43;101963.56;;;20.82;48.88
17254;BME280;32542;52.832;13.816;2023-04-07T10:45:51;101963.56;;;20.82;48.81
17254;BME280;32542;52.832;13.816;2023-04-07T10:49:08;101964.44;;;20.82;48.49
17254;BME280;32542;52.832;13.816;2023-04-07T10:52:22;101963.56;;;20.82;48.65
17254;BME280;32542;52.832;13.816;2023-04-07T10:55:31;101963.56;;;20.82;48.71
17254;BME280;32542;52.832;13.816;2023-04-07T10:58:34;101956.38;;;20.84;48.75
17254;BME280;32542;52.832;13.816;2023-04-07T11:01:38;101954.59;;;20.84;48.73
17254;BME280;32542;52.832;13.816;2023-04-07T11:05:45;101954.63;;;20.83;48.39
17254;BME280;32542;52.832;13.816;2023-04-07T11:08:48;101955.59;;;20.80;48.45
17254;BME280;32542;52.832;13.816;2023-04-07T11:11:51;101951.25;;;20.78;48.65
17254;BME280;32542;52.832;13.816;2023-04-07T11:14:54;101945.13;;;20.74;48.48
17254;BME280;32542;52.832;13.816;2023-04-07T11:18:14;101948.72;;;20.73;48.32
17254;BME280;32542;52.832;13.816;2023-04-07T11:21:19;101939.91;;;20.71;47.67
17254;BME280;32542;52.832;13.816;2023-04-07T11:24:31;101940.81;;;20.70;46.95
17254;BME280;32542;52.832;13.816;2023-04-07T11:27:34;101940.91;;;20.67;46.70
17254;BME280;32542;52.832;13.816;2023-04-07T11:30:38;101941.81;;;20.66;46.65
17254;BME280;32542;52.832;13.816;2023-04-07T11:33:41;101935.59;;;20.66;46.92
17254;BME280;32542;52.832;13.816;2023-04-07T11:36:45;101940.03;;;20.67;46.95
17254;BME280;32542;52.832;13.816;2023-04-07T11:39:51;101934.66;;;20.68;47.16
17254;BME280;32542;52.832;13.816;2023-04-07T11:42:54;101939.91;;;20.70;47.29
17254;BME280;32542;52.832;13.816;2023-04-07T11:46:05;101939.91;;;20.71;47.54
17254;BME280;32542;52.832;13.816;2023-04-07T11:49:10;101939.84;;;20.73;47.75
17254;BME280;32542;52.832;13.816;2023-04-07T11:52:15;101937.13;;;20.74;48.02
17254;BME280;32542;52.832;13.816;2023-04-07T11:55:18;101939.72;;;20.77;48.87
17254;BME280;32542;52.832;13.816;2023-04-07T11:58:23;101930.81;;;20.78;48.96
17254;BME280;32542;52.832;13.816;2023-04-07T12:01:38;101933.38;;;20.81;49.59
17254;BME280;32542;52.832;13.816;2023-04-07T12:04:54;101930.66;;;20.84;50.18
17254;BME280;32542;52.832;13.816;2023-04-07T12:07:59;101932.38;;;20.85;50.73
17254;BME280;32542;52.832;13.816;2023-04-07T12:11:03;101930.53;;;20.87;51.01
17254;BME280;32542;52.832;13.816;2023-04-07T12:14:06;101930.53;;;20.87;50.79
17254;BME280;32542;52.832;13.816;2023-04-07T12:17:19;101934.09;;;20.88;50.85
17254;BME280;32542;52.832;13.816;2023-04-07T12:20:22;101934.03;;;20.89;51.16
17254;BME280;32542;52.832;13.816;2023-04-07T12:23:26;101929.59;;;20.90;51.55
17254;BME280;32542;52.832;13.816;2023-04-07T12:26:29;101932.19;;;20.91;51.01
17254;BME280;32542;52.832;13.816;2023-04-07T12:29:32;101935.72;;;20.92;51.82
17254;BME280;32542;52.832;13.816;2023-04-07T12:32:35;101925.03;;;20.93;51.57
17254;BME280;32542;52.832;13.816;2023-04-07T12:35:38;101925.91;;;20.94;51.42
17254;BME280;32542;52.832;13.816;2023-04-07T12:38:42;101916.13;;;20.94;51.26
17254;BME280;32542;52.832;13.816;2023-04-07T12:41:46;101910.81;;;20.94;51.54
17254;BME280;32542;52.832;13.816;2023-04-07T12:44:49;101916.03;;;20.97;51.75
17254;BME280;32542;52.832;13.816;2023-04-07T12:47:52;101909.84;;;20.97;51.54
17254;BME280;32542;52.832;13.816;2023-04-07T12:50:55;101903.66;;;20.96;51.44
17254;BME280;32542;52.832;13.816;2023-04-07T12:53:59;101913.34;;;20.97;51.40
17254;BME280;32542;52.832;13.816;2023-04-07T12:57:02;101908.03;;;20.97;51.55
17254;BME280;32542;52.832;13.816;2023-04-07T13:00:06;101920.44;;;20.98;51.33
17254;BME280;32542;52.832;13.816;2023-04-07T13:03:09;101914.28;;;20.96;51.00
17254;BME280;32542;52.832;13.816;2023-04-07T13:06:12;101912.47;;;20.98;50.68
17254;BME280;32542;52.832;13.816;2023-04-07T13:09:16;101912.47;;;20.98;50.98
17254;BME280;32542;52.832;13.816;2023-04-07T13:12:19;101914.19;;;20.99;50.98
17254;BME280;32542;52.832;13.816;2023-04-07T13:15:22;101910.63;;;21.00;50.80
17254;BME280;32542;52.832;13.816;2023-04-07T13:18:25;101912.47;;;20.98;50.72
17254;BME280;32542;52.832;13.816;2023-04-07T13:21:28;101908.03;;;20.97;50.21
17254;BME280;32542;52.832;13.816;2023-04-07T13:24:35;101915.19;;;20.95;50.11
17254;BME280;32542;52.832;13.816;2023-04-07T13:27:38;101913.53;;;20.93;50.00
17254;BME280;32542;52.832;13.816;2023-04-07T13:30:41;101908.22;;;20.91;49.90
17254;BME280;32542;52.832;13.816;2023-04-07T13:33:44;101914.47;;;20.90;49.76
17254;BME280;32542;52.832;13.816;2023-04-07T13:36:47;101911.00;;;20.88;49.73
17254;BME280;32542;52.832;13.816;2023-04-07T13:39:52;101916.31;;;20.88;49.60
17254;BME280;32542;52.832;13.816;2023-04-07T13:42:55;101907.50;;;20.86;49.36
17254;BME280;32542;52.832;13.816;2023-04-07T13:45:58;101904.03;;;20.84;49.29
17254;BME280;32542;52.832;13.816;2023-04-07T13:49:01;101904.03;;;20.84;49.31
17254;BME280;32542;52.832;13.816;2023-04-07T13:52:04;101896.94;;;20.83;49.05
17254;BME280;32542;52.832;13.816;2023-04-07T13:55:08;101902.25;;;20.83;48.99
17254;BME280;32542;52.832;13.816;2023-04-07T13:58:11;101904.94;;;20.83;48.93
17254;BME280;32542;52.832;13.816;2023-04-07T14:01:14;101896.06;;;20.83;48.86
17254;BME280;32542;52.832;13.816;2023-04-07T14:04:17;101897.88;;;20.82;48.74
17254;BME280;32542;52.832;13.816;2023-04-07T14:07:20;101896.13;;;20.81;48.57
17254;BME280;32542;52.832;13.816;2023-04-07T14:10:24;101900.53;;;20.82;48.49
17254;BME280;32542;52.832;13.816;2023-04-07T14:13:27;101892.63;;;20.79;48.39
17254;BME280;32542;52.832;13.816;2023-04-07T14:16:30;101889.97;;;20.79;48.43
17254;BME280;32542;52.832;13.816;2023-04-07T14:19:33;101889.09;;;20.79;48.49
17254;BME280;32542;52.832;13.816;2023-04-07T14:22:36;101893.53;;;20.78;48.45
17254;BME280;32542;52.832;13.816;2023-04-07T14:25:40;101882.94;;;20.77;48.43
17254;BME280;32542;52.832;13.816;2023-04-07T14:28:43;101882.06;;;20.76;48.22
17254;BME280;32542;52.832;13.816;2023-04-07T14:31:46;101888.25;;;20.77;48.23
17254;BME280;32542;52.832;13.816;2023-04-07T14:34:50;101882.06;;;20.76;48.01
17254;BME280;32542;52.832;13.816;2023-04-07T14:37:52;101888.31;;;20.75;47.94
17254;BME280;32542;52.832;13.816;2023-04-07T14:40:57;101884.72;;;20.76;47.88
17254;BME280;32542;52.832;13.816;2023-04-07T14:44:10;101883.00;;;20.75;48.00
17254;BME280;32542;52.832;13.816;2023-04-07T14:47:13;101887.44;;;20.75;48.12
17254;BME280;32542;52.832;13.816;2023-04-07T14:50:16;101891.84;;;20.76;48.31
17254;BME280;32542;52.832;13.816;2023-04-07T14:53:20;101890.03;;;20.76;48.33
17254;BME280;32542;52.832;13.816;2023-04-07T15:00:29;101887.38;;;20.76;48.06
17254;BME280;32542;52.832;13.816;2023-04-07T15:03:31;101892.69;;;20.76;47.57
17254;BME280;32542;52.832;13.816;2023-04-07T15:06:35;101890.16;;;20.73;46.81
17254;BME280;32542;52.832;13.816;2023-04-07T15:09:38;101888.41;;;20.72;46.33
17254;BME280;32542;52.832;13.816;2023-04-07T15:12:41;101896.44;;;20.71;46.31
17254;BME280;32542;52.832;13.816;2023-04-07T15:15:45;101892.00;;;20.71;46.29
17254;BME280;32542;52.832;13.816;2023-04-07T15:18:48;101894.66;;;20.71;46.37
17254;BME280;32542;52.832;13.816;2023-04-07T15:21:51;101892.88;;;20.72;46.60
17254;BME280;32542;52.832;13.816;2023-04-07T15:24:54;101899.03;;;20.72;46.61
17254;BME280;32542;52.832;13.816;2023-04-07T15:27:57;101896.34;;;20.74;46.80
17254;BME280;32542;52.832;13.816;2023-04-07T15:31:01;101892.75;;;20.75;46.92
17254;BME280;32542;52.832;13.816;2023-04-07T15:34:04;101889.19;;;20.76;47.01
17254;BME280;32542;52.832;13.816;2023-04-07T15:37:07;101890.03;;;20.78;46.98
17254;BME280;32542;52.832;13.816;2023-04-07T15:40:10;101893.53;;;20.78;46.96
17254;BME280;32542;52.832;13.816;2023-04-07T15:43:13;101893.53;;;20.78;47.22
17254;BME280;32542;52.832;13.816;2023-04-07T15:46:17;101894.34;;;20.80;46.72
17254;BME280;32542;52.832;13.816;2023-04-07T15:49:20;101889.03;;;20.80;47.28
17254;BME280;32542;52.832;13.816;2023-04-07T15:52:26;101889.91;;;20.81;47.01
17254;BME280;32542;52.832;13.816;2023-04-07T15:55:29;101893.44;;;20.81;47.48
17254;BME280;32542;52.832;13.816;2023-04-07T15:58:32;101880.19;;;20.80;47.98
17254;BME280;32542;52.832;13.816;2023-04-07T16:01:36;101896.13;;;20.81;47.88
17254;BME280;32542;52.832;13.816;2023-04-07T16:04:39;101891.66;;;20.82;47.87
17254;BME280;32542;52.832;13.816;2023-04-07T16:07:42;101890.84;;;20.80;47.88